Time;durP1;ratioP1;P1;durP2;ratioP2;P2;SDS_P1;SDS_P2;PMS_P1;PMS_P2;Temp;Humidity;BMP_temperature;BMP_pressure;BME280_temperature;BME280_humidity;BME280_pressure;Samples;Min_cycle;Max_cycle;Signal;HPM_P1;HPM_P2
2021/07/01 00:00:14;;;;;;;23.98;20.52;;;;;;;;;;5074324;28;20074;-71
2021/07/01 00:02:40;;;;;;;21.17;18.98;;;;;;;;;;5073593;28;20357;-71
2021/07/01 00:05:06;;;;;;;20.85;18.55;;;;;;;;;;5073916;28;20079;-71
2021/07/01 00:07:33;;;;;;;21.42;18.30;;;;;;;;;;5072707;28;20106;-70
2021/07/01 00:09:58;;;;;;;18.95;17.00;;;;;;;;;;5074302;28;20017;-70
2021/07/01 00:12:24;;;;;;;18.08;16.05;;;;;;;;;;5064299;28;20107;-70
2021/07/01 00:14:49;;;;;;;19.00;16.17;;;;;;;;;;5054270;28;20082;-70
2021/07/01 00:17:14;;;;;;;15.40;13.77;;;;;;;;;;5059296;28;20013;-71
2021/07/01 00:19:40;;;;;;;14.37;12.97;;;;;;;;;;5073265;28;20107;-70
2021/07/01 00:22:05;;;;;;;14.95;12.85;;;;;;;;;;5063709;28;20294;-72
2021/07/01 00:24:30;;;;;;;14.20;12.80;;;;;;;;;;5054341;28;20017;-72
2021/07/01 00:26:55;;;;;;;12.57;11.27;;;;;;;;;;5059622;28;20083;-71
2021/07/01 00:29:21;;;;;;;10.50;8.80;;;;;;;;;;5053769;28;20640;-71
2021/07/01 00:31:48;;;;;;;7.90;7.20;;;;;;;;;;5053615;28;20721;-70
2021/07/01 00:34:14;;;;;;;8.40;7.53;;;;;;;;;;5070183;28;20282;-71
2021/07/01 00:36:39;;;;;;;8.40;6.63;;;;;;;;;;5072949;28;20460;-70
2021/07/01 00:39:05;;;;;;;7.72;6.78;;;;;;;;;;5056752;28;20029;-72
2021/07/01 00:41:33;;;;;;;8.18;6.45;;;;;;;;;;5073171;28;20021;-71
2021/07/01 00:44:00;;;;;;;8.73;6.10;;;;;;;;;;5071973;28;20036;-70
2021/07/01 00:46:28;;;;;;;6.47;5.32;;;;;;;;;;5073753;28;20149;-71
2021/07/01 00:48:53;;;;;;;5.72;5.28;;;;;;;;;;5073801;28;20032;-71
2021/07/01 00:51:18;;;;;;;5.95;5.32;;;;;;;;;;5065524;28;20356;-71
2021/07/01 00:53:46;;;;;;;6.30;5.80;;;;;;;;;;5053791;28;20048;-71
2021/07/01 00:56:11;;;;;;;5.75;5.25;;;;;;;;;;5055471;28;20032;-70
2021/07/01 00:58:37;;;;;;;6.00;5.50;;;;;;;;;;5054367;28;20017;-70
2021/07/01 01:01:05;;;;;;;6.05;5.45;;;;;;;;;;5057197;28;20107;-71
2021/07/01 01:03:37;;;;;;;6.78;5.80;;;;;;;;;;5053073;28;20445;-70
2021/07/01 01:06:03;;;;;;;6.40;5.90;;;;;;;;;;5052686;28;20076;-70
2021/07/01 01:08:29;;;;;;;6.03;5.53;;;;;;;;;;5053462;28;20409;-71
2021/07/01 01:10:54;;;;;;;6.40;5.90;;;;;;;;;;5053329;28;20052;-70
2021/07/01 01:13:26;;;;;;;7.20;6.60;;;;;;;;;;5053561;28;20059;-70
2021/07/01 01:15:56;;;;;;;8.48;7.65;;;;;;;;;;5052445;28;20017;-70
2021/07/01 01:18:21;;;;;;;7.35;6.75;;;;;;;;;;5053199;28;20028;-72
2021/07/01 01:20:48;;;;;;;8.75;7.80;;;;;;;;;;5053288;28;20031;-71
2021/07/01 01:23:13;;;;;;;8.30;7.60;;;;;;;;;;5053052;28;20021;-71
2021/07/01 01:25:41;;;;;;;8.20;7.22;;;;;;;;;;5053308;28;20028;-71
2021/07/01 01:28:06;;;;;;;9.27;8.02;;;;;;;;;;5053270;28;20025;-71
2021/07/01 01:30:31;;;;;;;8.30;7.50;;;;;;;;;;5052729;28;20029;-71
2021/07/01 01:32:56;;;;;;;8.23;7.28;;;;;;;;;;5052785;28;20036;-70
2021/07/01 01:35:22;;;;;;;7.50;6.90;;;;;;;;;;5052704;28;20028;-70
2021/07/01 01:37:47;;;;;;;7.60;6.90;;;;;;;;;;5057183;28;20286;-70
2021/07/01 01:40:12;;;;;;;7.33;6.83;;;;;;;;;;5072752;28;20039;-71
2021/07/01 01:42:41;;;;;;;9.32;8.43;;;;;;;;;;5072968;28;20718;-72
2021/07/01 01:45:06;;;;;;;9.25;8.45;;;;;;;;;;5056052;28;20017;-71
2021/07/01 01:47:32;;;;;;;11.15;9.30;;;;;;;;;;5053144;28;20035;-70
2021/07/01 01:49:57;;;;;;;10.18;9.25;;;;;;;;;;5059554;28;20040;-71
2021/07/01 01:52:22;;;;;;;11.37;10.27;;;;;;;;;;5072760;28;20445;-70
2021/07/01 01:54:47;;;;;;;11.05;9.90;;;;;;;;;;5073691;28;20774;-70
2021/07/01 01:57:13;;;;;;;12.65;10.10;;;;;;;;;;5061064;28;20028;-71
2021/07/01 01:59:41;;;;;;;9.57;8.63;;;;;;;;;;5067697;28;20013;-71
2021/07/01 02:02:06;;;;;;;9.48;8.68;;;;;;;;;;5070957;28;20058;-71
2021/07/01 02:04:31;;;;;;;9.82;8.90;;;;;;;;;;5071634;28;20047;-70
2021/07/01 02:06:56;;;;;;;8.48;7.68;;;;;;;;;;5069680;28;20024;-70
2021/07/01 02:09:27;;;;;;;6.40;5.88;;;;;;;;;;5076533;28;20063;-71
2021/07/01 02:11:55;;;;;;;6.10;5.50;;;;;;;;;;5076594;28;20358;-70
2021/07/01 02:14:20;;;;;;;5.45;5.03;;;;;;;;;;5058879;28;20055;-70
2021/07/01 02:16:45;;;;;;;5.65;5.15;;;;;;;;;;5055516;28;20052;-71
2021/07/01 02:19:11;;;;;;;5.97;4.90;;;;;;;;;;5061816;28;20334;-71
2021/07/01 02:21:36;;;;;;;5.20;4.80;;;;;;;;;;5076140;28;20016;-71
2021/07/01 02:24:01;;;;;;;5.40;4.95;;;;;;;;;;5076212;28;20012;-71
2021/07/01 02:26:26;;;;;;;5.32;4.93;;;;;;;;;;5068965;28;20043;-71
2021/07/01 02:28:51;;;;;;;6.03;5.43;;;;;;;;;;5056272;28;20029;-70
2021/07/01 02:31:17;;;;;;;6.47;5.63;;;;;;;;;;5055909;28;20278;-71
2021/07/01 02:33:44;;;;;;;6.75;5.72;;;;;;;;;;5072314;28;20698;-70
2021/07/01 02:36:09;;;;;;;6.00;5.50;;;;;;;;;;5076074;28;20033;-70
2021/07/01 02:38:37;;;;;;;5.97;5.40;;;;;;;;;;5075099;28;20027;-70
2021/07/01 02:41:02;;;;;;;5.82;5.28;;;;;;;;;;5074505;28;20024;-70
2021/07/01 02:43:27;;;;;;;6.00;5.40;;;;;;;;;;5074925;28;20024;-71
2021/07/01 02:45:56;;;;;;;7.65;5.68;;;;;;;;;;5074952;28;20564;-71
2021/07/01 02:48:21;;;;;;;9.30;4.85;;;;;;;;;;5074798;28;20091;-71
2021/07/01 02:50:46;;;;;;;5.80;5.28;;;;;;;;;;5074146;28;20024;-71
2021/07/01 02:53:12;;;;;;;5.67;5.17;;;;;;;;;;5055881;28;20021;-70
2021/07/01 02:55:39;;;;;;;5.95;5.03;;;;;;;;;;5055871;28;20252;-70
2021/07/01 02:58:04;;;;;;;5.93;5.40;;;;;;;;;;5055128;28;20032;-70
2021/07/01 03:00:30;;;;;;;6.18;4.88;;;;;;;;;;5066989;28;20028;-71
2021/07/01 03:02:57;;;;;;;5.90;4.82;;;;;;;;;;5075245;28;20044;-71
2021/07/01 03:05:22;;;;;;;5.13;4.60;;;;;;;;;;5074822;28;20361;-70
2021/07/01 03:07:48;;;;;;;5.63;4.65;;;;;;;;;;5072184;28;20039;-71
2021/07/01 03:10:13;;;;;;;9.23;5.40;;;;;;;;;;5074973;28;20020;-71
2021/07/01 03:12:38;;;;;;;8.45;5.50;;;;;;;;;;5074463;28;20020;-71
2021/07/01 03:15:04;;;;;;;5.43;4.97;;;;;;;;;;5074006;28;20059;-71
2021/07/01 03:17:29;;;;;;;6.00;5.40;;;;;;;;;;5074702;28;20032;-72
2021/07/01 03:19:54;;;;;;;7.43;5.40;;;;;;;;;;5075083;28;20017;-71
2021/07/01 03:22:20;;;;;;;6.35;5.75;;;;;;;;;;5074129;28;20409;-71
2021/07/01 03:24:46;;;;;;;6.40;5.80;;;;;;;;;;5074793;28;20013;-70
2021/07/01 03:27:11;;;;;;;6.85;6.15;;;;;;;;;;5073240;28;20277;-70
2021/07/01 03:29:39;;;;;;;7.43;6.72;;;;;;;;;;5074738;28;20024;-71
2021/07/01 03:32:04;;;;;;;8.35;6.50;;;;;;;;;;5065183;28;20039;-70
2021/07/01 03:34:29;;;;;;;7.28;6.57;;;;;;;;;;5073423;28;20024;-70
2021/07/01 03:36:55;;;;;;;7.00;6.27;;;;;;;;;;5069517;28;20093;-70
2021/07/01 03:39:22;;;;;;;6.90;6.30;;;;;;;;;;5073499;28;20316;-71
2021/07/01 03:41:50;;;;;;;6.55;5.97;;;;;;;;;;5067528;28;20278;-71
2021/07/01 03:44:16;;;;;;;6.80;6.10;;;;;;;;;;5074098;28;20019;-71
2021/07/01 03:46:41;;;;;;;7.03;6.32;;;;;;;;;;5074148;28;20431;-71
2021/07/01 03:49:07;;;;;;;8.25;5.97;;;;;;;;;;5073177;28;20043;-70
2021/07/01 03:51:32;;;;;;;7.53;6.75;;;;;;;;;;5069649;28;20021;-71
2021/07/01 03:53:59;;;;;;;7.70;6.10;;;;;;;;;;5072772;28;20437;-71
2021/07/01 03:56:25;;;;;;;11.30;6.63;;;;;;;;;;5070329;28;20016;-71
2021/07/01 03:58:50;;;;;;;7.85;7.07;;;;;;;;;;5098034;28;20307;-71
2021/07/01 04:01:18;;;;;;;6.85;5.93;;;;;;;;;;5071325;28;20411;-70
2021/07/01 04:03:43;;;;;;;6.57;6.00;;;;;;;;;;5073721;28;20456;-71
2021/07/01 04:06:08;;;;;;;7.43;6.73;;;;;;;;;;5073794;28;20041;-69
2021/07/01 04:08:33;;;;;;;7.47;6.40;;;;;;;;;;5056367;28;20352;-70
2021/07/01 04:10:59;;;;;;;6.47;5.85;;;;;;;;;;5054376;28;20032;-70
2021/07/01 04:13:24;;;;;;;6.40;5.80;;;;;;;;;;5064200;28;20103;-70
2021/07/01 04:15:52;;;;;;;7.45;6.78;;;;;;;;;;5073072;28;20028;-70
2021/07/01 04:18:19;;;;;;;7.38;6.47;;;;;;;;;;5073299;28;20395;-70
2021/07/01 04:20:45;;;;;;;8.77;6.20;;;;;;;;;;5074116;28;20024;-70
2021/07/01 04:23:10;;;;;;;7.60;6.83;;;;;;;;;;5061726;28;20032;-70
2021/07/01 04:25:36;;;;;;;8.02;7.22;;;;;;;;;;5052813;28;20255;-71
2021/07/01 04:28:04;;;;;;;8.10;7.40;;;;;;;;;;5070547;28;20024;-70
2021/07/01 04:30:32;;;;;;;9.93;7.93;;;;;;;;;;5073266;28;20048;-70
2021/07/01 04:32:58;;;;;;;8.43;7.50;;;;;;;;;;5071327;28;20460;-69
2021/07/01 04:35:25;;;;;;;9.00;7.95;;;;;;;;;;5054111;28;20029;-70
2021/07/01 04:37:50;;;;;;;9.45;7.93;;;;;;;;;;5073435;28;20093;-69
2021/07/01 04:40:15;;;;;;;8.50;7.40;;;;;;;;;;5072520;28;20032;-69
2021/07/01 04:42:41;;;;;;;10.57;9.30;;;;;;;;;;5073141;28;20016;-69
2021/07/01 04:45:07;;;;;;;15.38;9.18;;;;;;;;;;5072967;28;20418;-69
2021/07/01 04:47:32;;;;;;;10.20;9.25;;;;;;;;;;5073430;28;20357;-69
2021/07/01 04:49:57;;;;;;;11.55;8.80;;;;;;;;;;5073390;28;20039;-69
2021/07/01 04:52:23;;;;;;;12.40;9.52;;;;;;;;;;5073596;28;20429;-69
2021/07/01 04:54:48;;;;;;;12.82;9.45;;;;;;;;;;5069421;28;20093;-70
2021/07/01 04:57:13;;;;;;;11.55;10.35;;;;;;;;;;5072651;28;20028;-69
2021/07/01 04:59:41;;;;;;;13.68;8.85;;;;;;;;;;5072317;28;20020;-70
2021/07/01 05:02:06;;;;;;;13.60;9.30;;;;;;;;;;5072081;28;20493;-69
2021/07/01 05:04:31;;;;;;;12.25;8.52;;;;;;;;;;5072265;28;20032;-70
2021/07/01 05:06:57;;;;;;;10.45;8.55;;;;;;;;;;5072799;28;20020;-70
2021/07/01 05:09:22;;;;;;;14.93;10.25;;;;;;;;;;5060708;28;20048;-69
2021/07/01 05:11:47;;;;;;;11.35;9.10;;;;;;;;;;5067757;28;20012;-70
2021/07/01 05:14:16;;;;;;;14.45;9.60;;;;;;;;;;5062970;28;20033;-69
2021/07/01 05:16:41;;;;;;;11.63;9.43;;;;;;;;;;5069688;28;20035;-69
2021/07/01 05:19:06;;;;;;;14.00;9.48;;;;;;;;;;5071513;28;20020;-69
2021/07/01 05:21:31;;;;;;;12.10;9.63;;;;;;;;;;5060675;28;20404;-70
2021/07/01 05:23:57;;;;;;;14.68;9.82;;;;;;;;;;5052924;28;20377;-70
2021/07/01 05:26:22;;;;;;;13.77;9.45;;;;;;;;;;5052341;28;20383;-71
2021/07/01 05:28:48;;;;;;;13.48;9.57;;;;;;;;;;5065342;28;20037;-70
2021/07/01 05:31:13;;;;;;;14.80;10.77;;;;;;;;;;5071587;28;20048;-69
2021/07/01 05:33:38;;;;;;;11.63;9.38;;;;;;;;;;5071501;28;20036;-69
2021/07/01 05:36:04;;;;;;;17.42;10.50;;;;;;;;;;5064830;28;20025;-69
2021/07/01 05:38:29;;;;;;;12.32;10.68;;;;;;;;;;5070291;28;20044;-69
2021/07/01 05:40:54;;;;;;;17.55;11.18;;;;;;;;;;5070810;28;20113;-70
2021/07/01 05:43:20;;;;;;;18.65;10.73;;;;;;;;;;5071121;28;20407;-70
2021/07/01 05:45:45;;;;;;;14.90;11.00;;;;;;;;;;5069573;28;20016;-70
2021/07/01 05:48:11;;;;;;;17.33;11.45;;;;;;;;;;5071634;28;20270;-73
2021/07/01 05:50:43;;;;;;;16.83;11.80;;;;;;;;;;5072905;28;20016;-71
2021/07/01 05:53:11;;;;;;;17.63;10.77;;;;;;;;;;5072862;28;20017;-71
2021/07/01 05:55:36;;;;;;;14.15;10.50;;;;;;;;;;5070827;28;20116;-70
2021/07/01 05:58:03;;;;;;;16.75;10.70;;;;;;;;;;5055534;28;20167;-71
2021/07/01 06:00:30;;;;;;;19.83;10.15;;;;;;;;;;5072826;28;20012;-70
2021/07/01 06:02:55;;;;;;;20.38;10.75;;;;;;;;;;5071747;28;20337;-70
2021/07/01 06:05:20;;;;;;;15.63;9.90;;;;;;;;;;5070544;28;20059;-70
2021/07/01 06:07:48;;;;;;;21.25;11.25;;;;;;;;;;5070382;28;20119;-70
2021/07/01 06:10:16;;;;;;;15.93;9.77;;;;;;;;;;5072296;28;20013;-70
2021/07/01 06:12:41;;;;;;;18.73;10.60;;;;;;;;;;5064748;28;20104;-70
2021/07/01 06:15:07;;;;;;;16.80;9.77;;;;;;;;;;5072145;28;20095;-70
2021/07/01 06:17:35;;;;;;;13.40;9.32;;;;;;;;;;5071616;28;20048;-70
2021/07/01 06:20:01;;;;;;;14.70;9.63;;;;;;;;;;5052309;28;20388;-70
2021/07/01 06:22:27;;;;;;;14.88;9.40;;;;;;;;;;5060295;28;20035;-69
2021/07/01 06:24:58;;;;;;;19.95;10.25;;;;;;;;;;5065769;28;20029;-70
2021/07/01 06:27:36;;;;;;;20.45;10.93;;;;;;;;;;5063640;28;20016;-70
2021/07/01 06:30:03;;;;;;;15.32;10.13;;;;;;;;;;5062458;28;20020;-69
2021/07/01 06:32:42;;;;;;;17.17;9.50;;;;;;;;;;5061696;28;20115;-69
2021/07/01 06:35:10;;;;;;;18.33;9.98;;;;;;;;;;5070301;28;20032;-70
2021/07/01 06:37:37;;;;;;;16.20;9.90;;;;;;;;;;5066041;28;20020;-70
2021/07/01 06:40:05;;;;;;;21.40;10.73;;;;;;;;;;5070445;28;20019;-70
2021/07/01 06:42:32;;;;;;;20.80;10.23;;;;;;;;;;5071309;28;20009;-70
2021/07/01 06:44:57;;;;;;;23.60;11.45;;;;;;;;;;5071726;28;20467;-69
2021/07/01 06:47:23;;;;;;;19.85;10.15;;;;;;;;;;5071364;28;20036;-71
2021/07/01 06:49:52;;;;;;;19.65;11.23;;;;;;;;;;5072351;28;20021;-70
2021/07/01 06:52:21;;;;;;;16.08;9.88;;;;;;;;;;5070277;28;20108;-69
2021/07/01 06:54:47;;;;;;;20.60;9.90;;;;;;;;;;5071382;28;20097;-70
2021/07/01 06:57:13;;;;;;;15.48;9.40;;;;;;;;;;5072039;28;20016;-70
2021/07/01 06:59:40;;;;;;;18.65;9.13;;;;;;;;;;5071844;28;20048;-69
2021/07/01 07:02:09;;;;;;;14.50;8.68;;;;;;;;;;5071086;28;20095;-69
2021/07/01 07:04:35;;;;;;;17.35;9.45;;;;;;;;;;5068908;28;20101;-70
2021/07/01 07:07:02;;;;;;;18.80;10.00;;;;;;;;;;5071348;28;20087;-70
2021/07/01 07:09:30;;;;;;;24.60;10.65;;;;;;;;;;5071938;28;20362;-70
2021/07/01 07:11:57;;;;;;;20.70;10.82;;;;;;;;;;5071626;28;20020;-70
2021/07/01 07:14:22;;;;;;;19.85;10.15;;;;;;;;;;5071381;28;20465;-70
2021/07/01 07:16:51;;;;;;;22.92;10.05;;;;;;;;;;5073426;28;20035;-70
2021/07/01 07:19:22;;;;;;;25.15;10.73;;;;;;;;;;5075283;28;20452;-69
2021/07/01 07:21:50;;;;;;;17.70;9.55;;;;;;;;;;5072560;28;20024;-71
2021/07/01 07:24:22;;;;;;;17.40;9.27;;;;;;;;;;5073729;28;20117;-70
2021/07/01 07:26:50;;;;;;;18.20;10.27;;;;;;;;;;5070259;28;20163;-69
2021/07/01 07:29:19;;;;;;;16.63;10.82;;;;;;;;;;5069023;28;20044;-70
2021/07/01 07:31:45;;;;;;;15.45;10.75;;;;;;;;;;5074725;28;20032;-69
2021/07/01 07:34:10;;;;;;;17.00;10.13;;;;;;;;;;5074417;28;20327;-71
2021/07/01 07:36:36;;;;;;;19.52;10.30;;;;;;;;;;5074391;28;20314;-69
2021/07/01 07:39:05;;;;;;;13.23;9.27;;;;;;;;;;5074820;28;20361;-69
2021/07/01 07:41:33;;;;;;;14.05;8.70;;;;;;;;;;5074224;28;20082;-69
2021/07/01 07:43:58;;;;;;;14.15;8.80;;;;;;;;;;5058349;28;20032;-69
2021/07/01 07:46:25;;;;;;;13.25;7.60;;;;;;;;;;5074102;28;20050;-69
2021/07/01 07:48:50;;;;;;;12.98;7.30;;;;;;;;;;5073599;28;20082;-69
2021/07/01 07:51:16;;;;;;;12.90;8.00;;;;;;;;;;5070587;28;20428;-69
2021/07/01 07:53:42;;;;;;;9.52;7.50;;;;;;;;;;5066942;28;20063;-70
2021/07/01 07:56:13;;;;;;;15.10;8.38;;;;;;;;;;5068312;28;20047;-69
2021/07/01 07:58:49;;;;;;;12.80;7.85;;;;;;;;;;5073041;28;20009;-70
2021/07/01 08:01:14;;;;;;;;;;;;;;;;;;5069644;28;20384;-69
2021/07/01 08:03:40;;;;;;;12.30;8.07;;;;;;;;;;5071781;28;20015;-70
2021/07/01 08:06:09;;;;;;;13.75;9.57;;;;;;;;;;5072862;28;20048;-70
2021/07/01 08:08:41;;;;;;;12.38;8.52;;;;;;;;;;5074288;28;20020;-69
2021/07/01 08:11:10;;;;;;;13.30;8.40;;;;;;;;;;5068323;28;20056;-70
2021/07/01 08:13:37;;;;;;;14.35;8.93;;;;;;;;;;5074295;28;20013;-69
2021/07/01 08:16:03;;;;;;;12.68;8.48;;;;;;;;;;5062406;28;20024;-70
2021/07/01 08:18:31;;;;;;;12.73;8.48;;;;;;;;;;5074040;28;20020;-70
2021/07/01 08:20:58;;;;;;;18.52;9.07;;;;;;;;;;5070275;28;20012;-69
2021/07/01 08:23:25;;;;;;;13.80;8.48;;;;;;;;;;5068981;28;20047;-69
2021/07/01 08:25:52;;;;;;;11.75;8.50;;;;;;;;;;5074311;28;20218;-69
2021/07/01 08:28:21;;;;;;;19.15;9.20;;;;;;;;;;5073018;28;20020;-69
2021/07/01 08:30:46;;;;;;;16.60;8.75;;;;;;;;;;5073490;28;20078;-69
2021/07/01 08:33:12;;;;;;;14.40;9.10;;;;;;;;;;5073512;28;20441;-70
2021/07/01 08:35:38;;;;;;;17.50;9.85;;;;;;;;;;5073076;28;20016;-69
2021/07/01 08:38:04;;;;;;;15.80;9.63;;;;;;;;;;5072638;28;20028;-70
2021/07/01 08:40:31;;;;;;;14.57;9.27;;;;;;;;;;5073584;28;20051;-70
2021/07/01 08:42:57;;;;;;;13.90;9.50;;;;;;;;;;5072251;28;20843;-70
2021/07/01 08:45:28;;;;;;;17.92;9.93;;;;;;;;;;5073552;28;20030;-69
2021/07/01 08:47:59;;;;;;;19.27;10.82;;;;;;;;;;5073072;28;20046;-69
2021/07/01 08:50:28;;;;;;;20.30;11.88;;;;;;;;;;5073571;28;20036;-70
2021/07/01 08:53:13;;;;;;;17.50;11.02;;;;;;;;;;5065455;28;20020;-69
2021/07/01 08:55:39;;;;;;;18.58;10.90;;;;;;;;;;5073472;28;20025;-70
2021/07/01 08:58:06;;;;;;;18.17;10.73;;;;;;;;;;5070510;28;20031;-69
2021/07/01 09:00:38;;;;;;;17.55;11.65;;;;;;;;;;5071947;28;20016;-70
2021/07/01 09:03:03;;;;;;;16.67;10.98;;;;;;;;;;5071202;28;20463;-70
2021/07/01 09:05:30;;;;;;;15.25;11.27;;;;;;;;;;5070272;28;20052;-70
2021/07/01 09:07:58;;;;;;;16.15;11.25;;;;;;;;;;5072950;28;20077;-71
2021/07/01 09:10:28;;;;;;;22.40;11.55;;;;;;;;;;5071150;28;20492;-70
2021/07/01 09:12:55;;;;;;;20.88;11.77;;;;;;;;;;5073189;28;20047;-70
2021/07/01 09:15:20;;;;;;;16.27;11.40;;;;;;;;;;5072984;28;20107;-69
2021/07/01 09:17:48;;;;;;;16.98;11.10;;;;;;;;;;5072493;28;20509;-70
2021/07/01 09:20:20;;;;;;;15.18;11.38;;;;;;;;;;5071541;28;20044;-70
2021/07/01 09:22:46;;;;;;;16.77;11.35;;;;;;;;;;5069943;28;20012;-70
2021/07/01 09:25:11;;;;;;;19.67;11.18;;;;;;;;;;5065337;28;20361;-70
2021/07/01 09:27:40;;;;;;;18.55;12.75;;;;;;;;;;5065388;28;20024;-70
2021/07/01 09:30:06;;;;;;;15.27;10.43;;;;;;;;;;5072822;28;20090;-70
2021/07/01 09:32:31;;;;;;;14.15;9.65;;;;;;;;;;5071331;28;20455;-70
2021/07/01 09:34:56;;;;;;;15.25;10.75;;;;;;;;;;5072369;28;20028;-70
2021/07/01 09:37:22;;;;;;;14.35;11.30;;;;;;;;;;5071759;28;20036;-70
2021/07/01 09:39:48;;;;;;;12.38;9.70;;;;;;;;;;5069869;28;20121;-70
2021/07/01 09:42:14;;;;;;;14.52;10.40;;;;;;;;;;5072095;28;20032;-70
2021/07/01 09:44:40;;;;;;;13.43;9.93;;;;;;;;;;5072108;28;20025;-70
2021/07/01 09:47:10;;;;;;;14.90;9.52;;;;;;;;;;5066381;28;20040;-71
2021/07/01 09:49:43;;;;;;;15.07;10.20;;;;;;;;;;5072362;28;20088;-69
2021/07/01 09:52:13;;;;;;;12.57;9.50;;;;;;;;;;5069658;28;20107;-70
2021/07/01 09:54:40;;;;;;;12.60;9.65;;;;;;;;;;5072095;28;20099;-70
2021/07/01 09:57:14;;;;;;;14.13;10.07;;;;;;;;;;5071025;28;20231;-71
2021/07/01 09:59:58;;;;;;;11.45;9.15;;;;;;;;;;5065928;28;20036;-72
2021/07/01 10:02:24;;;;;;;16.55;10.30;;;;;;;;;;5070556;28;20020;-69
2021/07/01 10:04:49;;;;;;;13.35;10.15;;;;;;;;;;5060524;28;20094;-70
2021/07/01 10:07:20;;;;;;;13.15;10.48;;;;;;;;;;5051176;28;20430;-70
2021/07/01 10:09:50;;;;;;;12.40;8.70;;;;;;;;;;5063836;28;20090;-71
2021/07/01 10:12:16;;;;;;;11.00;9.75;;;;;;;;;;5072762;28;20029;-70
2021/07/01 10:14:44;;;;;;;12.43;9.45;;;;;;;;;;5059685;28;20406;-70
2021/07/01 10:17:19;;;;;;;11.63;8.60;;;;;;;;;;5075382;28;20095;-70
2021/07/01 10:19:45;;;;;;;9.63;8.30;;;;;;;;;;5072606;28;20024;-70
2021/07/01 10:22:12;;;;;;;11.52;8.35;;;;;;;;;;5076127;28;20112;-70
2021/07/01 10:25:06;;;;;;;11.98;8.48;;;;;;;;;;5075615;28;20029;-71
2021/07/01 10:27:36;;;;;;;10.10;8.18;;;;;;;;;;5058741;28;20033;-71
2021/07/01 10:30:11;;;;;;;9.43;8.40;;;;;;;;;;5075687;28;20028;-70
2021/07/01 10:32:47;;;;;;;9.25;7.50;;;;;;;;;;5076151;28;20020;-70
2021/07/01 10:35:24;;;;;;;9.68;8.25;;;;;;;;;;5067275;28;20020;-71
2021/07/01 10:37:57;;;;;;;11.93;8.13;;;;;;;;;;5076242;28;20129;-71
2021/07/01 10:40:25;;;;;;;9.70;7.25;;;;;;;;;;5059338;28;20021;-70
2021/07/01 10:42:51;;;;;;;11.15;8.43;;;;;;;;;;5076021;28;20093;-70
2021/07/01 10:45:16;;;;;;;8.98;8.02;;;;;;;;;;5076187;28;20104;-71
2021/07/01 10:47:42;;;;;;;11.32;8.23;;;;;;;;;;5064420;28;20111;-70
2021/07/01 10:50:20;;;;;;;10.80;8.73;;;;;;;;;;5056108;28;20470;-71
2021/07/01 10:52:46;;;;;;;12.38;8.77;;;;;;;;;;5063987;28;20027;-70
2021/07/01 10:55:11;;;;;;;12.13;9.35;;;;;;;;;;5075503;28;20028;-71
2021/07/01 10:57:46;;;;;;;13.77;8.18;;;;;;;;;;5075590;28;20457;-70
2021/07/01 11:00:11;;;;;;;12.15;8.88;;;;;;;;;;5075952;28;20099;-70
2021/07/01 11:02:41;;;;;;;15.43;8.60;;;;;;;;;;5075753;28;20136;-70
2021/07/01 11:05:07;;;;;;;17.48;8.77;;;;;;;;;;5075054;28;20045;-69
2021/07/01 11:07:44;;;;;;;12.18;8.18;;;;;;;;;;5075388;28;20039;-70
2021/07/01 11:10:10;;;;;;;13.65;8.68;;;;;;;;;;5064602;28;20582;-69
2021/07/01 11:12:46;;;;;;;11.95;9.35;;;;;;;;;;5070746;28;20051;-69
2021/07/01 11:15:15;;;;;;;13.25;8.77;;;;;;;;;;5068543;28;20028;-71
2021/07/01 11:17:41;;;;;;;14.60;9.73;;;;;;;;;;5071418;28;20039;-70
2021/07/01 11:20:13;;;;;;;12.35;8.40;;;;;;;;;;5070986;28;20078;-70
2021/07/01 11:22:46;;;;;;;12.02;7.93;;;;;;;;;;5063282;28;20055;-70
2021/07/01 11:25:25;;;;;;;8.38;7.38;;;;;;;;;;5059601;28;20017;-69
2021/07/01 11:27:54;;;;;;;9.98;8.00;;;;;;;;;;5062843;28;20028;-69
2021/07/01 11:30:25;;;;;;;10.75;7.50;;;;;;;;;;5060075;28;20046;-70
2021/07/01 11:33:09;;;;;;;7.97;7.18;;;;;;;;;;5071306;28;20395;-70
2021/07/01 11:35:35;;;;;;;9.93;7.00;;;;;;;;;;5070129;28;20028;-69
2021/07/01 11:38:00;;;;;;;10.97;7.13;;;;;;;;;;5068584;28;20446;-70
2021/07/01 11:40:25;;;;;;;12.10;7.40;;;;;;;;;;5068015;28;20289;-70
2021/07/01 11:42:51;;;;;;;10.90;7.55;;;;;;;;;;5069769;28;20273;-78
2021/07/01 11:45:16;;;;;;;10.50;7.40;;;;;;;;;;5070433;28;20368;-78
2021/07/01 11:47:42;;;;;;;11.43;7.22;;;;;;;;;;5065491;28;20039;-70
2021/07/01 11:50:08;;;;;;;8.75;7.85;;;;;;;;;;5072558;28;20017;-70
2021/07/01 11:52:33;;;;;;;10.05;7.32;;;;;;;;;;5070850;28;20013;-70
2021/07/01 11:55:01;;;;;;;13.65;8.15;;;;;;;;;;5068559;28;20008;-71
2021/07/01 11:57:27;;;;;;;14.82;8.98;;;;;;;;;;5069730;28;20406;-71
2021/07/01 11:59:55;;;;;;;10.82;8.45;;;;;;;;;;5072637;28;20013;-70
2021/07/01 12:02:20;;;;;;;10.10;7.97;;;;;;;;;;5067589;28;20012;-70
2021/07/01 12:04:45;;;;;;;11.45;7.55;;;;;;;;;;5069304;28;20051;-69
2021/07/01 12:07:27;;;;;;;12.10;8.45;;;;;;;;;;5065209;28;20174;-70
2021/07/01 12:09:54;;;;;;;11.18;8.43;;;;;;;;;;5068728;28;20016;-70
2021/07/01 12:12:21;;;;;;;13.27;7.72;;;;;;;;;;5069010;28;20012;-71
2021/07/01 12:14:47;;;;;;;10.95;7.50;;;;;;;;;;5089445;28;20043;-70
2021/07/01 12:17:33;;;;;;;11.00;7.93;;;;;;;;;;5091454;28;20035;-70
2021/07/01 12:19:59;;;;;;;10.40;8.18;;;;;;;;;;5069615;28;20314;-71
2021/07/01 12:22:43;;;;;;;11.55;7.45;;;;;;;;;;5071674;28;20095;-70
2021/07/01 12:25:19;;;;;;;10.32;7.30;;;;;;;;;;5082281;28;20422;-70
2021/07/01 12:27:44;;;;;;;13.00;7.10;;;;;;;;;;5069541;28;20111;-70
2021/07/01 12:30:10;;;;;;;7.97;7.15;;;;;;;;;;5064827;28;20128;-71
2021/07/01 12:32:35;;;;;;;10.13;6.13;;;;;;;;;;5063682;28;20056;-70
2021/07/01 12:35:21;;;;;;;8.10;5.80;;;;;;;;;;5073142;28;20518;-70
2021/07/01 12:38:05;;;;;;;6.90;6.03;;;;;;;;;;5070986;28;20112;-70
2021/07/01 12:40:33;;;;;;;7.82;6.15;;;;;;;;;;5064385;28;20107;-70
2021/07/01 12:42:58;;;;;;;6.47;5.38;;;;;;;;;;5072860;28;20012;-70
2021/07/01 12:45:29;;;;;;;7.50;5.87;;;;;;;;;;5071817;28;20465;-71
2021/07/01 12:47:55;;;;;;;7.50;5.70;;;;;;;;;;5072991;28;20278;-70
2021/07/01 12:50:26;;;;;;;11.00;6.73;;;;;;;;;;5073344;28;20353;-71
2021/07/01 12:52:54;;;;;;;13.82;7.90;;;;;;;;;;5071406;28;20282;-70
2021/07/01 12:55:23;;;;;;;9.68;7.55;;;;;;;;;;5053611;28;20033;-71
2021/07/01 12:57:48;;;;;;;9.90;8.70;;;;;;;;;;5058576;28;20035;-71
2021/07/01 13:00:16;;;;;;;8.70;7.80;;;;;;;;;;5069817;28;20017;-71
2021/07/01 13:02:57;;;;;;;11.95;7.75;;;;;;;;;;5073139;28;20016;-72
2021/07/01 13:05:23;;;;;;;9.50;7.07;;;;;;;;;;5072143;28;20040;-70
2021/07/01 13:07:50;;;;;;;8.85;7.28;;;;;;;;;;5073012;28;20429;-70
2021/07/01 13:10:17;;;;;;;8.68;7.70;;;;;;;;;;5054667;28;20088;-70
2021/07/01 13:12:44;;;;;;;11.65;7.70;;;;;;;;;;5053219;28;20041;-70
2021/07/01 13:15:19;;;;;;;15.60;8.63;;;;;;;;;;5068437;28;20107;-70
2021/07/01 13:17:44;;;;;;;10.82;8.20;;;;;;;;;;5073485;28;20024;-70
2021/07/01 13:20:12;;;;;;;12.52;8.05;;;;;;;;;;5073442;28;20341;-70
2021/07/01 13:22:39;;;;;;;10.52;7.93;;;;;;;;;;5072941;28;20349;-70
2021/07/01 13:25:13;;;;;;;10.98;7.38;;;;;;;;;;5071566;28;20029;-70
2021/07/01 13:27:40;;;;;;;11.02;7.78;;;;;;;;;;5070722;28;20469;-70
2021/07/01 13:30:07;;;;;;;9.85;8.52;;;;;;;;;;5072538;28;20099;-70
2021/07/01 13:32:33;;;;;;;11.57;8.15;;;;;;;;;;5072605;28;20013;-70
2021/07/01 13:34:58;;;;;;;8.95;7.97;;;;;;;;;;5072079;28;20035;-70
2021/07/01 13:37:25;;;;;;;10.50;7.93;;;;;;;;;;5073265;28;20445;-71
2021/07/01 13:39:51;;;;;;;11.48;7.95;;;;;;;;;;5073276;28;20433;-70
2021/07/01 13:42:31;;;;;;;10.10;8.60;;;;;;;;;;5064821;28;20025;-70
2021/07/01 13:45:03;;;;;;;11.50;8.15;;;;;;;;;;5053218;28;20073;-70
2021/07/01 13:47:30;;;;;;;11.70;8.52;;;;;;;;;;5085895;28;20516;-70
2021/07/01 13:49:56;;;;;;;11.85;8.60;;;;;;;;;;5058967;28;20407;-71
2021/07/01 13:52:21;;;;;;;12.10;8.45;;;;;;;;;;5076672;28;20073;-70
2021/07/01 13:54:46;;;;;;;12.88;8.77;;;;;;;;;;5075471;28;20040;-70
2021/07/01 13:57:12;;;;;;;10.32;8.77;;;;;;;;;;5074059;28;20029;-70
2021/07/01 13:59:37;;;;;;;14.33;7.93;;;;;;;;;;5088933;28;20464;-70
2021/07/01 14:02:18;;;;;;;10.25;8.88;;;;;;;;;;5056142;28;20259;-71
2021/07/01 14:04:46;;;;;;;11.48;8.27;;;;;;;;;;5062001;28;20037;-71
2021/07/01 14:07:13;;;;;;;11.52;8.32;;;;;;;;;;5056722;28;20040;-71
2021/07/01 14:09:38;;;;;;;10.55;7.65;;;;;;;;;;5055611;28;20369;-71
2021/07/01 14:12:04;;;;;;;12.07;8.30;;;;;;;;;;5056949;28;20017;-71
2021/07/01 14:14:32;;;;;;;10.45;7.57;;;;;;;;;;5070222;28;20281;-71
2021/07/01 14:16:57;;;;;;;10.10;7.93;;;;;;;;;;5074633;28;20028;-71
2021/07/01 14:19:24;;;;;;;9.88;8.20;;;;;;;;;;5056297;28;20028;-71
2021/07/01 14:21:50;;;;;;;9.05;7.70;;;;;;;;;;5058668;28;20013;-70
2021/07/01 14:24:17;;;;;;;10.73;7.63;;;;;;;;;;5076238;28;20028;-72
2021/07/01 14:26:44;;;;;;;8.68;7.15;;;;;;;;;;5073976;28;20016;-71
2021/07/01 14:29:09;;;;;;;11.38;7.72;;;;;;;;;;5059997;28;20033;-71
2021/07/01 14:31:38;;;;;;;10.63;8.48;;;;;;;;;;5056053;28;20103;-71